Time;durP1;ratioP1;P1;durP2;ratioP2;P2;SDS_P1;SDS_P2;PMS_P1;PMS_P2;Temp;Humidity;BMP_temperature;BMP_pressure;BME280_temperature;BME280_humidity;BME280_pressure;Samples;Min_cycle;Max_cycle;Signal;HPM_P1;HPM_P2
2023/09/03 00:01:16;;;;;;;5.92;3.52;;;;;;;19.26;78.59;100802.44;1708102;84;21013;-61
2023/09/03 00:03:45;;;;;;;6.12;3.50;;;;;;;19.27;78.50;100798.02;1708009;84;21041;-61
2023/09/03 00:06:37;;;;;;;5.50;3.37;;;;;;;19.28;78.24;100790.53;1708155;83;21069;-62
2023/09/03 00:09:06;;;;;;;6.58;3.98;;;;;;;19.29;78.19;100787.50;1677187;85;21082;-62
2023/09/03 00:11:37;;;;;;;6.30;4.05;;;;;;;19.26;77.85;100793.55;1679592;85;21039;-62
2023/09/03 00:14:06;;;;;;;6.75;4.00;;;;;;;19.21;78.01;100790.67;1679683;85;21067;-61
2023/09/03 00:16:36;;;;;;;6.08;3.80;;;;;;;19.19;78.11;100782.28;1679558;85;21059;-62
2023/09/03 00:19:06;;;;;;;5.50;3.45;;;;;;;19.20;78.02;100791.75;1679770;85;21114;-61
2023/09/03 00:21:35;;;;;;;4.67;3.70;;;;;;;19.22;78.23;100788.73;1679509;85;21106;-61
2023/09/03 00:24:06;;;;;;;4.85;3.60;;;;;;;19.20;78.51;100783.42;1655010;85;21063;-60
2023/09/03 00:26:36;;;;;;;6.58;3.70;;;;;;;19.18;78.85;100785.59;1677164;85;21152;-62
2023/09/03 00:29:05;;;;;;;6.42;4.20;;;;;;;19.17;78.98;100775.58;1679558;85;21166;-61
2023/09/03 00:31:34;;;;;;;5.72;3.95;;;;;;;19.19;78.70;100774.79;1679741;85;21172;-61
2023/09/03 00:34:03;;;;;;;5.35;3.87;;;;;;;19.16;78.20;100778.60;1679589;85;21086;-62
2023/09/03 00:36:33;;;;;;;5.33;4.10;;;;;;;19.16;78.25;100775.28;1679634;85;21545;-62
2023/09/03 00:39:04;;;;;;;5.97;3.92;;;;;;;19.19;77.95;100772.01;1679725;85;21023;-61
2023/09/03 00:41:33;;;;;;;6.10;4.15;;;;;;;19.20;77.46;100766.75;1679693;85;21102;-62
2023/09/03 00:44:03;;;;;;;6.90;3.80;;;;;;;19.21;77.33;100770.38;1679653;85;21043;-62
2023/09/03 00:46:32;;;;;;;5.08;3.75;;;;;;;19.20;77.04;100764.52;1679572;85;21083;-61
2023/09/03 00:49:02;;;;;;;6.17;4.10;;;;;;;19.20;76.88;100765.91;1679486;85;21134;-62
2023/09/03 00:51:32;;;;;;;5.60;4.12;;;;;;;19.21;77.11;100764.27;1679533;85;21522;-61
2023/09/03 00:54:02;;;;;;;5.85;3.83;;;;;;;19.20;77.07;100754.25;1679740;85;21091;-61
2023/09/03 00:56:32;;;;;;;6.62;4.40;;;;;;;19.15;77.04;100758.86;1679530;85;21090;-61
2023/09/03 00:59:03;;;;;;;5.40;4.08;;;;;;;19.15;77.43;100756.92;1679628;85;21600;-61
2023/09/03 01:01:32;;;;;;;7.33;4.10;;;;;;;19.16;77.50;100754.45;1679494;85;21690;-61
2023/09/03 01:04:02;;;;;;;7.40;4.45;;;;;;;19.16;77.39;100753.59;1679775;85;21079;-63
2023/09/03 01:06:32;;;;;;;7.25;4.70;;;;;;;19.14;76.81;100753.00;1679661;85;21167;-62
2023/09/03 01:09:00;;;;;;;6.75;4.28;;;;;;;19.12;76.85;100750.47;1677086;85;21110;-62
2023/09/03 01:12:02;;;;;;;5.83;4.25;;;;;;;19.12;77.13;100750.47;1637811;85;21103;-62
2023/09/03 01:15:02;;;;;;;6.80;4.33;;;;;;;19.12;76.60;100751.02;1658336;85;21186;-61
2023/09/03 01:17:39;;;;;;;6.70;4.30;;;;;;;19.08;76.62;100745.65;1676987;85;21523;-61
2023/09/03 01:20:40;;;;;;;9.23;4.15;;;;;;;19.03;76.95;100742.22;1677030;85;21074;-61
2023/09/03 01:23:37;;;;;;;6.75;4.22;;;;;;;18.99;76.79;100736.86;1647685;87;21524;-62
2023/09/03 01:26:50;;;;;;;5.50;4.30;;;;;;;19.00;76.93;100739.93;1654778;85;21511;-61
2023/09/03 01:29:19;;;;;;;7.33;4.40;;;;;;;19.00;76.21;100742.71;1676838;85;21078;-61
2023/09/03 01:31:49;;;;;;;6.30;4.30;;;;;;;19.03;75.76;100745.55;1676859;85;21549;-61
2023/09/03 01:34:18;;;;;;;5.92;4.00;;;;;;;19.04;75.56;100744.45;1677038;85;21087;-61
2023/09/03 01:36:50;;;;;;;7.22;4.25;;;;;;;19.02;75.68;100740.53;1682300;85;21087;-61
2023/09/03 01:39:21;;;;;;;6.53;4.22;;;;;;;19.00;75.66;100744.94;1682164;85;21524;-62
2023/09/03 01:41:53;;;;;;;6.00;4.05;;;;;;;18.98;75.63;100737.95;1676941;85;21066;-62
2023/09/03 01:44:22;;;;;;;5.83;4.12;;;;;;;18.96;76.00;100745.67;1676820;85;21555;-62
2023/09/03 01:46:55;;;;;;;8.85;4.42;;;;;;;19.00;76.45;100745.48;1677011;85;21126;-60
2023/09/03 01:49:46;;;;;;;5.70;4.10;;;;;;;19.06;76.23;100745.05;1676773;85;21560;-63
2023/09/03 01:52:37;;;;;;;5.35;3.80;;;;;;;19.09;75.66;100745.41;1671013;84;21495;-61
2023/09/03 01:55:10;;;;;;;10.30;4.37;;;;;;;19.14;75.02;100739.11;1677079;84;21066;-61
2023/09/03 01:57:44;;;;;;;5.78;3.98;;;;;;;19.15;74.41;100740.80;1676786;84;21928;-62
2023/09/03 02:00:16;;;;;;;5.22;3.80;;;;;;;19.14;73.69;100739.95;1676765;84;21040;-60
2023/09/03 02:02:49;;;;;;;7.15;4.25;;;;;;;19.16;73.67;100740.55;1676866;85;21503;-62
2023/09/03 02:05:19;;;;;;;6.28;4.25;;;;;;;19.20;73.43;100744.53;1676843;84;21510;-60
2023/09/03 02:07:49;;;;;;;7.53;4.12;;;;;;;19.25;73.51;100746.56;1678622;83;21250;-62
2023/09/03 02:10:18;;;;;;;8.33;4.37;;;;;;;19.28;73.69;100744.69;1682495;85;21102;-62
2023/09/03 02:12:47;;;;;;;5.97;3.70;;;;;;;19.29;73.88;100744.44;1682673;85;21483;-61
2023/09/03 02:15:17;;;;;;;4.78;3.47;;;;;;;19.27;73.89;100738.83;1682662;85;21055;-61
2023/09/03 02:17:46;;;;;;;7.28;3.83;;;;;;;19.27;73.74;100746.62;1682757;85;21071;-62
2023/09/03 02:20:16;;;;;;;6.62;3.95;;;;;;;19.29;73.70;100743.05;1682734;85;21083;-62
2023/09/03 02:22:46;;;;;;;5.33;3.60;;;;;;;19.28;73.56;100749.70;1682763;85;21040;-62
2023/09/03 02:25:15;;;;;;;4.85;3.62;;;;;;;19.28;73.45;100746.07;1682772;85;21058;-62
2023/09/03 02:27:44;;;;;;;7.30;4.10;;;;;;;19.29;73.61;100747.22;1682742;85;21063;-61
2023/09/03 02:30:16;;;;;;;6.25;3.80;;;;;;;19.31;73.44;100743.64;1682838;85;21000;-62
2023/09/03 02:32:45;;;;;;;5.97;4.05;;;;;;;19.34;73.52;100745.08;1682805;85;21154;-62
2023/09/03 02:35:15;;;;;;;5.47;3.50;;;;;;;19.33;73.54;100747.02;1682722;85;21070;-61
2023/09/03 02:37:45;;;;;;;6.28;4.08;;;;;;;19.30;73.48;100743.89;1682559;85;21087;-62
2023/09/03 02:40:16;;;;;;;8.03;4.42;;;;;;;19.26;73.13;100739.38;1682512;85;21487;-61
2023/09/03 02:42:45;;;;;;;6.30;4.53;;;;;;;19.24;72.58;100733.22;1682571;85;21114;-60
2023/09/03 02:45:16;;;;;;;6.12;4.25;;;;;;;19.24;72.32;100737.39;1682535;85;21062;-62
2023/09/03 02:47:46;;;;;;;7.28;4.25;;;;;;;19.27;72.25;100736.89;1682863;85;21159;-61
2023/09/03 02:50:16;;;;;;;5.70;4.25;;;;;;;19.27;72.24;100738.83;1682776;85;21043;-61
2023/09/03 02:52:45;;;;;;;6.62;4.03;;;;;;;19.25;72.12;100740.47;1682554;85;21490;-60
2023/09/03 02:55:15;;;;;;;5.67;4.08;;;;;;;19.27;72.03;100740.22;1682668;85;21031;-62
2023/09/03 02:57:44;;;;;;;6.92;4.90;;;;;;;19.26;71.78;100739.92;1681843;85;21086;-62
2023/09/03 03:00:14;;;;;;;8.10;4.75;;;;;;;19.29;71.48;100747.77;1682651;85;21055;-61
2023/09/03 03:02:43;;;;;;;5.78;4.47;;;;;;;19.30;71.52;100736.95;1682565;85;21474;-61
2023/09/03 03:05:14;;;;;;;7.83;4.60;;;;;;;19.31;71.54;100743.64;1682704;85;21103;-60
2023/09/03 03:07:43;;;;;;;7.50;4.47;;;;;;;19.33;71.38;100741.46;1682088;84;21062;-61
2023/09/03 03:10:13;;;;;;;8.43;4.05;;;;;;;19.33;70.72;100751.73;1677082;85;21059;-61
2023/09/03 03:12:45;;;;;;;8.20;4.67;;;;;;;19.30;70.33;100743.34;1676852;84;21482;-61
2023/09/03 03:15:18;;;;;;;8.25;4.60;;;;;;;19.29;70.22;100743.59;1677239;85;21039;-62
2023/09/03 03:17:48;;;;;;;7.45;4.25;;;;;;;19.29;69.60;100741.66;1677068;85;21687;-62
2023/09/03 03:20:18;;;;;;;9.23;4.58;;;;;;;19.29;69.13;100744.44;1676937;85;21165;-62
2023/09/03 03:22:47;;;;;;;7.03;4.60;;;;;;;19.30;68.64;100744.73;1676998;85;21475;-62
2023/09/03 03:25:17;;;;;;;6.75;4.25;;;;;;;19.33;68.29;100742.01;1677277;85;21594;-61
2023/09/03 03:27:46;;;;;;;6.80;4.20;;;;;;;19.36;68.24;100737.34;1676909;85;21186;-62
2023/09/03 03:30:16;;;;;;;5.78;4.47;;;;;;;19.39;68.63;100741.56;1677054;85;21043;-62
2023/09/03 03:32:47;;;;;;;7.42;4.55;;;;;;;19.41;69.03;100739.38;1676906;85;21565;-63
2023/09/03 03:35:18;;;;;;;6.95;4.80;;;;;;;19.40;69.21;100742.70;1676829;85;21115;-61
2023/09/03 03:37:48;;;;;;;8.40;4.35;;;;;;;19.38;69.03;100741.27;1677063;85;21094;-62
2023/09/03 03:40:21;;;;;;;10.03;4.42;;;;;;;19.38;69.23;100748.21;1677046;85;21106;-62
2023/09/03 03:42:50;;;;;;;8.80;4.33;;;;;;;19.37;69.12;100746.52;1677306;85;21047;-62
2023/09/03 03:45:20;;;;;;;8.65;5.08;;;;;;;19.38;69.00;100744.05;1677118;85;21134;-61
2023/09/03 03:47:50;;;;;;;10.15;4.90;;;;;;;19.39;68.84;100747.12;1677029;84;21475;-62
2023/09/03 03:50:20;;;;;;;7.28;4.90;;;;;;;19.38;68.49;100744.05;1676907;85;21488;-60
2023/09/03 03:52:49;;;;;;;7.62;4.12;;;;;;;19.35;68.29;100736.20;1677133;85;21079;-61
2023/09/03 03:55:19;;;;;;;8.73;4.80;;;;;;;19.35;68.22;100744.54;1676847;85;21503;-62
2023/09/03 03:57:49;;;;;;;6.55;4.30;;;;;;;19.33;68.21;100744.24;1677054;85;21094;-62
2023/09/03 04:00:20;;;;;;;6.45;4.62;;;;;;;19.33;68.20;100737.30;1677061;85;21055;-62
2023/09/03 04:02:49;;;;;;;5.10;3.80;;;;;;;19.37;67.97;100739.03;1676940;85;21123;-62
2023/09/03 04:05:19;;;;;;;5.17;3.95;;;;;;;19.40;67.63;100744.64;1676955;85;21083;-61
2023/09/03 04:07:48;;;;;;;7.62;4.25;;;;;;;19.42;65.98;100742.45;1682025;85;21063;-62
2023/09/03 04:10:17;;;;;;;7.17;4.30;;;;;;;19.47;66.00;100745.34;1684921;85;21517;-60
2023/09/03 04:12:46;;;;;;;6.75;4.12;;;;;;;19.53;66.16;100743.86;1684744;85;21531;-62
2023/09/03 04:15:16;;;;;;;5.20;3.95;;;;;;;19.57;66.37;100744.20;1684720;85;21463;-61
2023/09/03 04:17:45;;;;;;;6.58;4.28;;;;;;;19.60;65.30;100739.54;1661830;85;21082;-62
2023/09/03 04:20:16;;;;;;;5.00;4.10;;;;;;;19.62;64.70;100742.91;1684723;84;21063;-62
2023/09/03 04:22:46;;;;;;;6.72;4.33;;;;;;;19.65;63.97;100734.63;1685029;85;21044;-62
2023/09/03 04:25:17;;;;;;;6.33;4.28;;;;;;;19.68;62.94;100729.95;1684917;85;21190;-64
2023/09/03 04:27:47;;;;;;;6.47;4.22;;;;;;;19.71;62.40;100735.86;1684687;84;21087;-63
2023/09/03 04:30:16;;;;;;;5.85;4.10;;;;;;;19.74;61.60;100727.02;1684866;84;21106;-64
2023/09/03 04:32:46;;;;;;;6.47;3.83;;;;;;;19.75;61.42;100730.64;1684721;85;21086;-63
2023/09/03 04:35:15;;;;;;;5.58;4.10;;;;;;;19.75;61.29;100734.27;1685000;84;21521;-62
2023/09/03 04:37:45;;;;;;;5.80;4.08;;;;;;;19.77;60.99;100734.86;1684610;84;21165;-62
2023/09/03 04:40:16;;;;;;;6.65;4.15;;;;;;;19.78;60.86;100737.09;1661660;85;21503;-62
2023/09/03 04:42:47;;;;;;;6.67;4.20;;;;;;;19.80;61.12;100737.14;1684977;84;21059;-63
2023/09/03 04:45:17;;;;;;;7.42;4.50;;;;;;;19.81;61.03;100738.83;1684744;85;21502;-63
2023/09/03 04:47:46;;;;;;;6.35;4.20;;;;;;;19.82;60.92;100734.11;1684769;85;21035;-62
2023/09/03 04:50:16;;;;;;;6.28;4.08;;;;;;;19.82;60.38;100734.11;1684883;85;21075;-62
2023/09/03 04:52:50;;;;;;;15.23;8.90;;;;;;;19.83;60.32;100738.02;1684008;85;21110;-61
2023/09/03 04:57:58;;;;;;;5.42;4.25;;;;;;;19.89;60.01;100742.59;1684899;85;21004;-62
2023/09/03 05:00:30;;;;;;;7.87;4.45;;;;;;;19.93;59.45;100745.70;1684727;85;21090;-62
2023/09/03 05:02:59;;;;;;;6.03;4.20;;;;;;;19.96;59.26;100742.42;1684684;84;21565;-62
2023/09/03 05:05:29;;;;;;;6.47;4.17;;;;;;;19.99;58.89;100743.86;1684812;85;21058;-61
2023/09/03 05:07:59;;;;;;;5.78;3.80;;;;;;;20.03;58.53;100751.45;1684676;85;21102;-62
2023/09/03 05:10:30;;;;;;;6.95;4.15;;;;;;;20.05;58.29;100743.70;1684763;84;21110;-62
2023/09/03 05:13:00;;;;;;;6.08;4.25;;;;;;;20.08;58.30;100752.93;1684845;84;21498;-62
2023/09/03 05:15:31;;;;;;;6.30;4.28;;;;;;;20.09;58.01;100746.27;1684688;85;21110;-61
2023/09/03 05:18:04;;;;;;;7.15;4.08;;;;;;;20.10;57.82;100739.61;1684865;85;21654;-64
2023/09/03 05:20:39;;;;;;;5.17;3.87;;;;;;;20.12;57.72;100739.36;1684829;84;21083;-62
2023/09/03 05:23:09;;;;;;;7.60;4.10;;;;;;;20.12;57.70;100740.20;1684913;85;21035;-62
2023/09/03 05:25:38;;;;;;;7.75;4.08;;;;;;;20.13;57.34;100741.05;1684831;85;21054;-62
2023/09/03 05:28:08;;;;;;;7.00;4.15;;;;;;;20.14;57.23;100732.98;1684680;84;21067;-62
2023/09/03 05:30:37;;;;;;;4.83;4.10;;;;;;;20.15;57.10;100727.17;1684658;84;21369;-60
2023/09/03 05:33:08;;;;;;;5.25;3.70;;;;;;;20.17;57.13;100738.08;1684861;84;21076;-62
2023/09/03 05:35:38;;;;;;;6.37;3.90;;;;;;;20.18;56.94;100741.16;1684910;84;21110;-62
2023/09/03 05:38:08;;;;;;;5.90;3.85;;;;;;;20.20;56.85;100738.42;1684699;84;21320;-61
2023/09/03 05:40:38;;;;;;;5.65;3.60;;;;;;;20.23;56.51;100744.88;1684833;84;21043;-61
2023/09/03 05:43:08;;;;;;;5.05;3.85;;;;;;;20.25;56.37;100735.72;1684847;84;21118;-63
2023/09/03 05:45:45;;;;;;;6.62;3.80;;;;;;;20.26;56.09;100733.23;1684951;85;21062;-61
2023/09/03 05:48:15;;;;;;;5.62;3.62;;;;;;;20.28;56.03;100730.74;1684720;84;21108;-62
2023/09/03 05:50:44;;;;;;;6.20;4.08;;;;;;;20.30;55.79;100734.11;1684899;84;21074;-62
2023/09/03 05:53:13;;;;;;;4.92;3.55;;;;;;;20.32;55.39;100736.09;1684775;84;21082;-62
2023/09/03 05:55:44;;;;;;;7.53;3.75;;;;;;;20.33;55.24;100740.56;1685048;84;21110;-63
2023/09/03 05:58:13;;;;;;;7.47;3.85;;;;;;;20.34;55.31;100737.53;1684811;84;21518;-61
2023/09/03 06:00:43;;;;;;;5.10;3.60;;;;;;;20.39;55.35;100740.94;1684883;84;21030;-62
2023/09/03 06:03:13;;;;;;;5.85;3.45;;;;;;;20.42;55.23;100735.73;1685026;85;21070;-62
2023/09/03 06:05:44;;;;;;;7.00;4.30;;;;;;;20.48;55.18;100740.84;1684890;85;21055;-61
2023/09/03 06:08:14;;;;;;;8.10;4.17;;;;;;;20.53;55.10;100743.15;1684938;84;21133;-62
2023/09/03 06:10:44;;;;;;;6.70;3.90;;;;;;;20.58;54.84;100745.17;1677347;84;21276;-63
2023/09/03 06:13:13;;;;;;;5.90;3.92;;;;;;;20.64;54.77;100743.30;1676906;85;21076;-63
2023/09/03 06:15:42;;;;;;;7.53;4.45;;;;;;;20.66;54.63;100742.50;1677011;85;21036;-62
2023/09/03 06:18:12;;;;;;;4.22;3.55;;;;;;;20.67;54.55;100742.24;1677293;85;21024;-62
2023/09/03 06:20:42;;;;;;;6.92;3.90;;;;;;;20.68;54.36;100740.30;1676978;85;21537;-62
2023/09/03 06:23:15;;;;;;;5.22;3.98;;;;;;;20.70;54.11;100733.38;1677255;85;21055;-63
2023/09/03 06:25:43;;;;;;;5.12;3.58;;;;;;;20.71;53.96;100739.23;1677076;85;21516;-61
2023/09/03 06:28:12;;;;;;;6.47;4.10;;;;;;;20.71;53.72;100741.17;1677108;85;21102;-62
2023/09/03 06:30:43;;;;;;;5.03;3.95;;;;;;;20.69;53.72;100741.98;1676834;85;21059;-61
2023/09/03 06:33:12;;;;;;;6.40;4.10;;;;;;;20.71;53.75;100733.67;1677068;85;21111;-62
2023/09/03 06:35:42;;;;;;;5.75;3.70;;;;;;;20.73;53.67;100738.43;1676961;85;21055;-62
2023/09/03 06:38:11;;;;;;;5.37;3.52;;;;;;;20.77;53.46;100734.03;1682097;85;21584;-62
2023/09/03 06:40:41;;;;;;;5.47;3.90;;;;;;;20.82;53.25;100743.04;1677103;84;21467;-62
2023/09/03 06:43:10;;;;;;;5.53;3.60;;;;;;;20.85;53.17;100743.92;1676925;85;21519;-62
2023/09/03 06:45:43;;;;;;;5.65;3.70;;;;;;;20.88;52.93;100744.80;1677108;85;21063;-62
2023/09/03 06:48:12;;;;;;;4.80;3.80;;;;;;;20.91;52.88;100741.50;1677206;85;21098;-62
2023/09/03 06:50:42;;;;;;;4.62;3.77;;;;;;;20.95;52.68;100739.88;1676895;85;21118;-63
2023/09/03 06:53:11;;;;;;;4.67;3.40;;;;;;;20.99;52.83;100738.27;1677043;85;21122;-64
2023/09/03 06:55:45;;;;;;;4.42;3.40;;;;;;;21.03;52.71;100741.38;1676864;85;21573;-62
2023/09/03 06:58:14;;;;;;;7.28;3.87;;;;;;;21.08;52.80;100725.56;1676844;85;21510;-62
2023/09/03 07:00:44;;;;;;;5.90;3.90;;;;;;;21.13;52.79;100728.97;1677088;85;21074;-62
2023/09/03 07:03:15;;;;;;;5.75;3.50;;;;;;;21.18;52.81;100726.24;1676898;85;21070;-62
2023/09/03 07:05:44;;;;;;;4.85;3.67;;;;;;;21.27;52.92;100728.89;1676912;85;21019;-61
2023/09/03 07:08:14;;;;;;;5.12;3.45;;;;;;;21.36;52.55;100727.88;1677021;85;21569;-62
2023/09/03 07:10:45;;;;;;;7.55;3.60;;;;;;;21.44;52.25;100724.07;1683143;84;21075;-62
2023/09/03 07:13:14;;;;;;;4.58;3.67;;;;;;;21.48;51.96;100726.66;1684931;85;21098;-63
2023/09/03 07:15:44;;;;;;;6.30;3.90;;;;;;;21.49;51.73;100723.31;1684844;84;21082;-62
2023/09/03 07:18:13;;;;;;;6.78;3.58;;;;;;;21.49;51.82;100725.55;1684991;85;21102;-61
2023/09/03 07:20:43;;;;;;;5.05;3.90;;;;;;;21.50;51.82;100727.24;1684708;85;21051;-62
2023/09/03 07:23:12;;;;;;;5.45;3.95;;;;;;;21.51;51.90;100729.48;1685025;84;21118;-62
2023/09/03 07:25:44;;;;;;;5.30;3.80;;;;;;;21.54;52.07;100728.95;1684739;85;21058;-61
2023/09/03 07:28:13;;;;;;;4.85;3.60;;;;;;;21.55;52.10;100723.66;1684687;84;21514;-61
2023/09/03 07:30:43;;;;;;;6.35;3.90;;;;;;;21.61;52.23;100724.56;1684651;84;21491;-62
2023/09/03 07:33:13;;;;;;;5.62;3.80;;;;;;;21.71;51.97;100722.72;1684737;84;21094;-63
2023/09/03 07:35:44;;;;;;;6.25;4.17;;;;;;;21.80;51.73;100721.69;1684867;85;21083;-62
2023/09/03 07:38:13;;;;;;;8.33;4.10;;;;;;;21.83;51.69;100727.58;1684776;84;21094;-62
2023/09/03 07:40:43;;;;;;;7.65;4.12;;;;;;;21.86;51.90;100728.16;1684645;85;21568;-63
2023/09/03 07:43:13;;;;;;;7.10;4.00;;;;;;;21.89;52.06;100731.27;1684858;85;21540;-62
2023/09/03 07:45:41;;;;;;;6.35;4.05;;;;;;;21.93;51.79;100724.05;1684847;85;21079;-62
2023/09/03 07:48:11;;;;;;;6.33;4.35;;;;;;;21.96;51.59;100726.86;1684672;84;21086;-62
2023/09/03 07:50:41;;;;;;;6.15;3.90;;;;;;;21.91;51.52;100725.41;1684691;85;21051;-62
2023/09/03 07:53:11;;;;;;;8.50;4.25;;;;;;;21.90;51.76;100727.36;1684881;85;21525;-62
2023/09/03 07:55:40;;;;;;;8.60;4.35;;;;;;;21.92;51.39;100729.89;1684973;85;21031;-63
2023/09/03 07:58:10;;;;;;;5.28;3.83;;;;;;;21.92;51.44;100732.68;1684806;84;21047;-62
2023/09/03 08:00:40;;;;;;;6.30;4.00;;;;;;;21.91;51.39;100726.81;1684675;84;21121;-63
2023/09/03 08:03:09;;;;;;;7.58;4.20;;;;;;;21.92;51.58;100723.75;1684557;84;21141;-64
2023/09/03 08:05:39;;;;;;;8.03;4.50;;;;;;;21.94;51.87;100729.07;1684450;85;21053;-64
2023/09/03 08:08:09;;;;;;;6.25;4.10;;;;;;;21.96;51.94;100732.44;1684643;85;21054;-64
2023/09/03 08:10:39;;;;;;;4.90;3.67;;;;;;;21.96;51.99;100727.70;1679331;84;21079;-63
2023/09/03 08:13:08;;;;;;;5.75;3.70;;;;;;;21.98;51.90;100724.09;1651745;86;21054;-63
2023/09/03 08:15:37;;;;;;;5.00;3.80;;;;;;;22.02;51.65;100724.40;1674539;84;21058;-65
2023/09/03 08:18:07;;;;;;;5.92;3.95;;;;;;;22.16;51.52;100727.66;1674102;84;21039;-64
2023/09/03 08:20:36;;;;;;;7.20;3.60;;;;;;;22.34;51.00;100721.66;1674708;85;21007;-64
2023/09/03 08:23:06;;;;;;;5.75;3.60;;;;;;;22.51;50.54;100724.28;1674633;84;21121;-65
2023/09/03 08:25:35;;;;;;;4.40;3.55;;;;;;;22.65;50.23;100727.73;1632909;88;21025;-65
2023/09/03 08:28:05;;;;;;;5.08;3.55;;;;;;;22.74;50.32;100718.28;1633042;86;21131;-63
2023/09/03 08:30:33;;;;;;;5.25;3.60;;;;;;;22.90;49.95;100714.52;1676692;84;21055;-67
2023/09/03 08:33:06;;;;;;;5.08;3.62;;;;;;;23.04;49.46;100714.31;1680128;85;21050;-64
2023/09/03 08:35:36;;;;;;;5.20;3.12;;;;;;;23.28;48.79;100713.84;1680371;85;21563;-65
2023/09/03 08:38:05;;;;;;;4.45;3.20;;;;;;;23.63;47.58;100714.56;1680599;85;21109;-64
2023/09/03 08:40:34;;;;;;;5.45;3.33;;;;;;;24.03;46.23;100715.17;1682059;85;21062;-64
2023/09/03 08:43:07;;;;;;;4.90;3.12;;;;;;;24.26;45.16;100716.59;1656730;85;21556;-65
2023/09/03 08:45:40;;;;;;;3.80;3.02;;;;;;;24.32;45.01;100716.34;1681799;85;21069;-65
2023/09/03 08:48:10;;;;;;;4.53;3.10;;;;;;;24.38;44.66;100716.34;1681068;85;21572;-64
2023/09/03 08:50:39;;;;;;;6.80;3.17;;;;;;;24.35;44.55;100716.34;1680677;85;21022;-64
2023/09/03 08:53:09;;;;;;;5.67;3.25;;;;;;;24.28;44.47;100713.83;1655477;85;21463;-64
2023/09/03 08:55:39;;;;;;;4.67;3.37;;;;;;;24.20;44.66;100714.36;1680271;85;21018;-65
2023/09/03 08:58:09;;;;;;;4.00;2.90;;;;;;;24.12;43.78;100714.08;1656086;85;21113;-66
2023/09/03 09:00:38;;;;;;;5.75;2.70;;;;;;;24.01;43.73;100718.24;1680515;85;20999;-66
2023/09/03 09:03:09;;;;;;;3.92;2.85;;;;;;;23.90;43.84;100710.12;1680630;85;21470;-65
2023/09/03 09:05:41;;;;;;;6.85;2.90;;;;;;;23.80;44.21;100712.34;1681725;85;21106;-64
2023/09/03 09:08:11;;;;;;;4.87;3.00;;;;;;;23.70;44.63;100715.97;1682002;85;21082;-64
2023/09/03 09:10:43;;;;;;;3.92;2.87;;;;;;;23.64;44.74;100717.08;1679154;84;21529;-65
2023/09/03 09:13:13;;;;;;;4.10;3.00;;;;;;;23.56;45.16;100710.63;1676650;85;21055;-66
2023/09/03 09:15:43;;;;;;;6.03;3.00;;;;;;;23.54;45.30;100711.44;1676835;85;21111;-65
2023/09/03 09:18:14;;;;;;;4.10;3.02;;;;;;;23.55;45.38;100712.30;1676604;85;21086;-65
2023/09/03 09:20:43;;;;;;;4.58;3.10;;;;;;;23.54;44.66;100717.59;1676801;85;21503;-65
2023/09/03 09:23:12;;;;;;;6.55;2.95;;;;;;;23.49;44.80;100715.61;1676861;85;21102;-65
2023/09/03 09:25:40;;;;;;;4.72;3.08;;;;;;;23.51;44.89;100716.18;1676865;85;21238;-65
2023/09/03 09:28:14;;;;;;;4.45;3.02;;;;;;;23.51;45.09;100718.98;1676724;85;21204;-63
2023/09/03 09:30:58;;;;;;;3.87;2.90;;;;;;;23.53;45.09;100715.34;1676859;85;21039;-66
2023/09/03 09:33:27;;;;;;;6.05;3.33;;;;;;;23.54;45.26;100718.42;1676917;85;21083;-65
2023/09/03 09:36:10;;;;;;;4.67;3.15;;;;;;;23.57;45.57;100709.52;1676674;84;21510;-66
2023/09/03 09:38:39;;;;;;;5.17;3.10;;;;;;;23.56;45.78;100713.98;1675195;84;21470;-66
2023/09/03 09:41:25;;;;;;;4.25;2.92;;;;;;;23.55;45.54;100710.91;1671664;86;21098;-63
2023/09/03 09:43:53;;;;;;;4.30;2.80;;;;;;;23.57;45.48;100710.07;1671806;85;21090;-65
2023/09/03 09:46:27;;;;;;;5.03;2.80;;;;;;;23.60;45.24;100706.16;1671669;84;21050;-64
2023/09/03 09:48:58;;;;;;;6.15;3.00;;;;;;;23.68;45.34;100701.98;1671969;84;21039;-66
2023/09/03 09:51:28;;;;;;;4.67;2.83;;;;;;;23.77;45.19;100706.47;1671755;86;21071;-68
2023/09/03 09:54:04;;;;;;;4.50;2.90;;;;;;;23.84;44.57;100701.44;1671669;86;21059;-65
2023/09/03 09:56:38;;;;;;;6.13;3.33;;;;;;;23.88;44.52;100701.16;1672007;86;21054;-66
2023/09/03 09:59:04;;;;;;;8.65;5.08;;;;;;;23.90;44.42;100703.97;1671656;84;21078;-65
2023/09/03 10:01:46;;;;;;;4.12;3.00;;;;;;;23.90;44.38;100700.33;1654485;86;21059;-65
2023/09/03 10:04:26;;;;;;;7.35;5.30;;;;;;;23.91;44.72;100707.59;1671647;86;21094;-64
2023/09/03 10:06:55;;;;;;;5.75;3.40;;;;;;;23.92;44.55;100700.88;1656062;85;21066;-64
2023/09/03 10:09:25;;;;;;;3.33;2.55;;;;;;;23.92;44.52;100705.08;1671660;86;21074;-65
2023/09/03 10:11:54;;;;;;;4.92;2.80;;;;;;;23.94;44.30;100704.25;1676211;85;21074;-66
2023/09/03 10:14:24;;;;;;;3.40;2.60;;;;;;;23.96;44.02;100711.80;1676984;85;21046;-65
2023/09/03 10:16:55;;;;;;;4.62;3.00;;;;;;;24.01;43.98;100708.45;1652215;85;21537;-65
2023/09/03 10:19:24;;;;;;;5.37;3.05;;;;;;;24.04;44.27;100703.69;1676803;85;21544;-67
2023/09/03 10:21:58;;;;;;;9.45;3.15;;;;;;;24.09;44.23;100709.88;1676727;84;21118;-62
2023/09/03 10:24:27;;;;;;;5.60;3.22;;;;;;;24.14;44.74;100702.03;1676970;85;21140;-64
2023/09/03 10:26:59;;;;;;;5.78;2.50;;;;;;;24.19;44.42;100701.48;1676799;84;21035;-64
2023/09/03 10:29:31;;;;;;;4.20;2.72;;;;;;;24.25;44.17;100701.75;1676630;85;21094;-65
2023/09/03 10:32:00;;;;;;;3.40;2.80;;;;;;;24.28;43.67;100698.98;1676873;84;21514;-65
2023/09/03 10:34:30;;;;;;;3.45;2.75;;;;;;;24.24;43.75;100700.08;1652034;84;21030;-64
2023/09/03 10:37:06;;;;;;;3.77;2.70;;;;;;;24.19;44.03;100690.27;1676885;85;21085;-67
2023/09/03 10:39:37;;;;;;;6.10;2.95;;;;;;;24.19;44.13;100688.88;1679754;85;21082;-65
2023/09/03 10:42:30;;;;;;;5.00;3.35;;;;;;;24.20;44.08;100691.11;1680556;85;21145;-65
2023/09/03 10:44:59;;;;;;;3.27;2.67;;;;;;;24.22;43.79;100674.31;1680783;85;21026;-65
2023/09/03 10:47:28;;;;;;;6.47;3.10;;;;;;;24.22;43.46;100681.31;1680368;85;21046;-65
2023/09/03 10:49:57;;;;;;;3.98;2.95;;;;;;;24.23;43.46;100688.59;1680807;85;21459;-63
2023/09/03 10:52:39;;;;;;;5.30;2.90;;;;;;;24.24;43.54;100688.03;1680692;85;21073;-62
2023/09/03 10:55:16;;;;;;;3.83;2.50;;;;;;;24.26;43.44;100686.62;1679728;85;21042;-64
2023/09/03 10:57:46;;;;;;;4.12;2.87;;;;;;;24.27;43.12;100681.34;1680330;85;21109;-64
2023/09/03 11:00:20;;;;;;;3.52;2.60;;;;;;;24.29;43.27;100691.70;1680450;85;21110;-66
2023/09/03 11:02:48;;;;;;;3.40;2.70;;;;;;;24.32;43.26;100684.69;1680559;85;21050;-67
2023/09/03 11:05:22;;;;;;;3.52;2.77;;;;;;;24.32;43.03;100677.69;1680644;85;21038;-66
2023/09/03 11:08:22;;;;;;;5.25;2.87;;;;;;;24.33;43.32;100680.21;1680592;85;21497;-66
2023/09/03 11:10:50;;;;;;;5.08;3.27;;;;;;;24.38;43.03;100684.97;1678936;85;21058;-65
2023/09/03 11:13:18;;;;;;;3.22;2.90;;;;;;;24.36;42.70;100683.56;1675303;85;21043;-67
2023/09/03 11:15:59;;;;;;;4.83;2.80;;;;;;;24.37;42.86;100680.48;1672964;85;21480;-68
2023/09/03 11:18:26;;;;;;;5.55;2.90;;;;;;;24.36;42.56;100680.20;1675680;85;21046;-65
2023/09/03 11:20:58;;;;;;;5.75;2.90;;;;;;;24.30;42.76;100672.37;1675309;85;21506;-65
2023/09/03 11:23:29;;;;;;;5.03;2.70;;;;;;;24.28;42.61;100674.61;1675280;86;21051;-66
2023/09/03 11:26:03;;;;;;;4.80;2.58;;;;;;;24.24;42.69;100674.03;1674944;86;21478;-65
2023/09/03 11:28:36;;;;;;;3.83;2.52;;;;;;;24.21;42.51;100671.80;1675445;86;21082;-65
2023/09/03 11:31:06;;;;;;;6.03;2.70;;;;;;;24.16;42.60;100676.84;1675301;85;21061;-65
2023/09/03 11:33:35;;;;;;;4.70;3.20;;;;;;;24.11;42.79;100671.80;1675392;85;21055;-63
2023/09/03 11:36:05;;;;;;;3.85;2.58;;;;;;;24.10;42.92;100672.36;1675535;86;21003;-64
2023/09/03 11:38:35;;;;;;;4.50;2.95;;;;;;;24.12;42.93;100672.08;1675792;85;21507;-65
2023/09/03 11:41:06;;;;;;;3.67;2.60;;;;;;;24.14;42.66;100669.28;1676701;84;21035;-64
2023/09/03 11:43:40;;;;;;;4.20;2.52;;;;;;;24.13;42.76;100660.59;1676638;85;21491;-65
2023/09/03 11:46:14;;;;;;;5.42;2.70;;;;;;;24.14;42.58;100667.87;1676509;85;22211;-65